createdAt,value
2023-03-06T00:01:20.418Z,100754.38
2023-03-06T00:06:21.922Z,100743.88
2023-03-06T00:11:23.329Z,100748.59
2023-03-06T00:16:24.952Z,100738.34
2023-03-06T00:21:26.447Z,100735.63
2023-03-06T00:26:28.030Z,100724.97
2023-03-06T00:31:29.564Z,100728.88
2023-03-06T00:36:31.100Z,100721.88
2023-03-06T00:41:32.558Z,100711.28
2023-03-06T00:46:34.001Z,100717.59
2023-03-06T00:51:35.481Z,100707.50
2023-03-06T00:56:36.979Z,100698.59
2023-03-06T01:01:41.484Z,100700.72
2023-03-06T01:06:43.069Z,100685.06
2023-03-06T01:11:44.526Z,100691.53
2023-03-06T01:16:47.070Z,100666.22
2023-03-06T01:21:48.558Z,100659.50
2023-03-06T01:26:49.939Z,100665.34
2023-03-06T01:31:51.499Z,100664.41
2023-03-06T01:36:52.896Z,100656.50
2023-03-06T01:41:54.411Z,100650.56
2023-03-06T01:46:55.872Z,100642.91
2023-03-06T01:52:00.277Z,100645.53
2023-03-06T01:57:23.992Z,100650.63
2023-03-06T02:02:26.027Z,100643.78
2023-03-06T02:07:28.420Z,100635.13
2023-03-06T02:12:30.161Z,100642.38
2023-03-06T02:17:34.443Z,100633.44
2023-03-06T02:22:48.124Z,100637.41
2023-03-06T02:27:49.892Z,100629.78
2023-03-06T02:32:51.264Z,100618.34
2023-03-06T02:37:54.004Z,100616.38
2023-03-06T02:42:57.894Z,100610.78
2023-03-06T02:47:59.294Z,100612.31
2023-03-06T02:53:00.874Z,100602.78
2023-03-06T02:58:03.426Z,100592.66
2023-03-06T03:03:06.258Z,100584.91
2023-03-06T03:08:08.008Z,100579.56
2023-03-06T03:13:09.453Z,100575.19
2023-03-06T03:18:11.474Z,100563.50
2023-03-06T03:23:13.057Z,100560.22
2023-03-06T03:28:14.670Z,100551.81
2023-03-06T03:33:16.135Z,100546.16
2023-03-06T03:38:17.513Z,100535.25
2023-03-06T03:43:19.023Z,100526.19
2023-03-06T03:48:20.599Z,100520.28
2023-03-06T03:53:22.013Z,100525.69
2023-03-06T03:58:23.453Z,100524.81
2023-03-06T04:03:24.906Z,100518.34
2023-03-06T04:08:26.961Z,100505.91
2023-03-06T04:13:28.555Z,100514.28
2023-03-06T04:18:30.019Z,100495.84
2023-03-06T04:23:32.767Z,100493.13
2023-03-06T04:28:34.210Z,100496.03
2023-03-06T04:33:35.678Z,100483.41
2023-03-06T04:38:37.199Z,100485.25
2023-03-06T04:43:39.521Z,100482.72
2023-03-06T04:48:41.116Z,100472.91
2023-03-06T04:53:42.559Z,100471.25
2023-03-06T04:58:44.590Z,100478.13
2023-03-06T05:03:46.082Z,100472.47
2023-03-06T05:08:47.884Z,100468.97
2023-03-06T05:13:49.608Z,100457.34
2023-03-06T05:18:51.071Z,100449.69
2023-03-06T05:23:53.025Z,100443.16
2023-03-06T05:28:55.341Z,100450.09
2023-03-06T05:33:57.935Z,100434.91
2023-03-06T05:38:59.511Z,100442.63
2023-03-06T05:44:01.086Z,100436.66
2023-03-06T05:49:02.660Z,100437.56
2023-03-06T05:54:04.188Z,100430.91
2023-03-06T05:59:05.614Z,100433.28
2023-03-06T06:04:07.039Z,100426.75
2023-03-06T06:09:08.538Z,100424.03
2023-03-06T06:14:10.034Z,100424.03
2023-03-06T06:19:18.434Z,100423.31
2023-03-06T06:24:22.436Z,100421.69
2023-03-06T06:29:24.657Z,100424.25
2023-03-06T06:34:27.133Z,100424.13
2023-03-06T06:39:29.502Z,100425.00
2023-03-06T06:44:30.984Z,100422.72
2023-03-06T06:49:33.004Z,100429.56
2023-03-06T06:54:34.671Z,100427.34
2023-03-06T06:59:36.435Z,100425.75
2023-03-06T07:04:44.292Z,100428.56
2023-03-06T07:09:50.589Z,100436.44
2023-03-06T07:14:51.988Z,100436.91
2023-03-06T07:19:53.443Z,100438.84
2023-03-06T07:24:54.894Z,100446.69
2023-03-06T07:29:56.360Z,100449.44
2023-03-06T07:35:17.209Z,100454.75
2023-03-06T07:40:20.508Z,100454.19
2023-03-06T07:45:22.377Z,100456.13
2023-03-06T07:50:24.226Z,100463.19
2023-03-06T07:55:25.668Z,100466.19
2023-03-06T08:00:27.161Z,100463.44
2023-03-06T08:05:28.861Z,100467.31
2023-03-06T08:10:33.764Z,100470.22
2023-03-06T08:15:35.232Z,100474.25
2023-03-06T08:20:36.666Z,100454.84
2023-03-06T08:25:38.310Z,100464.91
2023-03-06T08:30:39.728Z,100473.16
2023-03-06T08:35:41.172Z,100470.00
2023-03-06T08:40:42.733Z,100477.50
2023-03-06T08:45:44.150Z,100482.66
2023-03-06T08:50:45.692Z,100475.75
2023-03-06T08:55:47.320Z,100484.84
2023-03-06T09:00:48.981Z,100485.50
2023-03-06T09:05:50.459Z,100481.19
2023-03-06T09:10:51.986Z,100471.41
2023-03-06T09:15:56.290Z,100461.59
2023-03-06T09:20:57.848Z,100454.22
2023-03-06T09:26:00.604Z,100451.91
2023-03-06T09:31:05.547Z,100449.44
2023-03-06T09:36:09.014Z,100443.06
2023-03-06T09:41:25.108Z,100444.22
2023-03-06T09:46:47.484Z,100438.72
2023-03-06T09:52:23.006Z,100431.22
2023-03-06T09:57:41.100Z,100424.56
2023-03-06T10:03:11.916Z,100427.94
2023-03-06T10:08:40.151Z,100432.97
2023-03-06T10:13:58.826Z,100425.75
2023-03-06T10:19:03.458Z,100431.03
2023-03-06T10:24:30.910Z,100431.81
2023-03-06T10:30:02.127Z,100423.81
2023-03-06T10:35:15.665Z,100415.47
2023-03-06T10:40:36.192Z,100423.25
2023-03-06T10:45:49.442Z,100424.47
2023-03-06T10:50:53.326Z,100421.22
2023-03-06T10:56:00.283Z,100424.81
2023-03-06T11:01:08.198Z,100419.28
2023-03-06T11:06:13.429Z,100404.69
2023-03-06T11:11:36.890Z,100413.16
2023-03-06T11:16:39.245Z,100395.50
2023-03-06T11:21:40.704Z,100392.47
2023-03-06T11:26:51.652Z,100376.16
2023-03-06T11:32:05.525Z,100374.63
2023-03-06T11:38:06.815Z,100377.34
2023-03-06T11:43:23.593Z,100366.78
2023-03-06T11:48:32.091Z,100372.28
2023-03-06T11:53:37.957Z,100367.03
2023-03-06T11:58:45.710Z,100366.78
2023-03-06T12:04:06.028Z,100356.19
2023-03-06T12:09:42.908Z,100352.75
2023-03-06T12:15:12.251Z,100349.50
2023-03-06T12:20:38.458Z,100333.22
2023-03-06T12:25:45.445Z,100330.78
2023-03-06T12:31:10.039Z,100342.41
2023-03-06T12:36:34.661Z,100335.88
2023-03-06T12:42:22.687Z,100330.41
2023-03-06T12:47:28.958Z,100322.56
2023-03-06T12:52:32.764Z,100324.38
2023-03-06T12:57:34.404Z,100316.94
2023-03-06T13:02:54.760Z,100312.53
2023-03-06T13:08:33.749Z,100298.13
2023-03-06T13:13:43.906Z,100290.88
2023-03-06T13:19:10.068Z,100289.00
2023-03-06T13:24:17.939Z,100291.72
2023-03-06T13:29:37.791Z,100289.19
2023-03-06T13:34:41.137Z,100276.59
2023-03-06T13:39:54.709Z,100283.13
2023-03-06T13:45:16.416Z,100271.50
2023-03-06T13:50:28.498Z,100268.16
2023-03-06T13:55:39.931Z,100261.50
2023-03-06T14:01:22.781Z,100255.91
2023-03-06T14:06:52.985Z,100251.59
2023-03-06T14:12:02.257Z,100247.56
2023-03-06T14:17:05.306Z,100237.63
2023-03-06T14:22:16.323Z,100229.69
2023-03-06T14:27:19.196Z,100217.34
2023-03-06T14:32:23.111Z,100222.13
2023-03-06T14:37:25.304Z,100214.16
2023-03-06T14:42:28.944Z,100212.84
2023-03-06T14:47:33.476Z,100219.19
2023-03-06T14:52:36.040Z,100216.59
2023-03-06T14:57:38.031Z,100227.56
2023-03-06T15:02:41.669Z,100212.56
2023-03-06T15:07:43.936Z,100210.66
2023-03-06T15:12:45.486Z,100199.56
2023-03-06T15:17:48.268Z,100198.09
2023-03-06T15:22:50.774Z,100195.38
2023-03-06T15:27:56.973Z,100187.50
2023-03-06T15:33:19.667Z,100195.19
2023-03-06T15:38:25.115Z,100184.97
2023-03-06T15:43:28.704Z,100177.34
2023-03-06T15:48:30.220Z,100167.09
2023-03-06T15:53:31.666Z,100186.69
2023-03-06T15:58:36.601Z,100190.16
2023-03-06T16:03:38.016Z,100180.09
2023-03-06T16:08:39.633Z,100168.69
2023-03-06T16:13:43.390Z,100155.84
2023-03-06T16:18:48.949Z,100151.47
2023-03-06T16:23:50.548Z,100147.47
2023-03-06T16:28:52.022Z,100138.75
2023-03-06T16:33:53.637Z,100135.50
2023-03-06T16:38:55.041Z,100140.47
2023-03-06T16:43:56.485Z,100139.44
2023-03-06T16:48:57.973Z,100143.56
2023-03-06T16:53:59.454Z,100140.31
2023-03-06T16:59:00.945Z,100142.25
2023-03-06T17:04:03.452Z,100138.97
2023-03-06T17:09:05.046Z,100138.09
2023-03-06T17:14:06.976Z,100119.25
2023-03-06T17:19:14.368Z,100114.22
2023-03-06T17:24:15.873Z,100106.53
2023-03-06T17:29:18.485Z,100103.19
2023-03-06T17:34:19.915Z,100104.00
2023-03-06T17:39:21.640Z,100109.94
2023-03-06T17:44:23.174Z,100102.38
2023-03-06T17:49:25.249Z,100094.59
2023-03-06T17:54:26.884Z,100095.44
2023-03-06T17:59:28.675Z,100091.97
2023-03-06T18:04:30.289Z,100085.84
2023-03-06T18:09:32.238Z,100084.06
2023-03-06T18:14:33.703Z,100075.31
2023-03-06T18:19:36.611Z,100071.06
2023-03-06T18:24:38.020Z,100071.03
2023-03-06T18:29:39.841Z,100063.22
2023-03-06T18:34:41.285Z,100053.91
2023-03-06T18:39:42.946Z,100043.81
2023-03-06T18:44:47.866Z,100042.09
2023-03-06T18:49:49.303Z,100022.44
2023-03-06T18:54:50.930Z,100018.19
2023-03-06T18:59:52.516Z,100006.19
2023-03-06T19:04:54.571Z,100002.88
2023-03-06T19:09:56.226Z,100001.88
2023-03-06T19:14:58.900Z,99981.41
2023-03-06T19:20:00.367Z,99973.00
2023-03-06T19:25:03.806Z,99975.44
2023-03-06T19:30:06.404Z,99970.25
2023-03-06T19:35:12.665Z,99969.22
2023-03-06T19:40:14.642Z,99952.13
2023-03-06T19:45:19.215Z,99942.56
2023-03-06T19:50:23.109Z,99946.72
2023-03-06T19:55:28.733Z,99939.84
2023-03-06T20:00:31.119Z,99924.41
2023-03-06T20:10:52.724Z,99903.84
2023-03-06T20:16:00.357Z,99890.06
2023-03-06T20:21:05.753Z,99883.53
2023-03-06T20:26:12.013Z,99875.84
2023-03-06T20:31:20.744Z,99868.00
2023-03-06T20:36:50.383Z,99860.53
2023-03-06T20:41:55.009Z,99858.69
2023-03-06T20:47:04.915Z,99850.31
2023-03-06T20:52:07.251Z,99840.97
2023-03-06T20:57:09.846Z,99835.97
2023-03-06T21:02:11.984Z,99826.63
2023-03-06T21:07:15.018Z,99823.19
2023-03-06T21:12:17.050Z,99814.78
2023-03-06T21:17:18.839Z,99806.28
2023-03-06T21:22:20.254Z,99793.63
2023-03-06T21:27:23.245Z,99786.94
2023-03-06T21:32:25.892Z,99769.13
2023-03-06T21:37:29.032Z,99767.66
2023-03-06T21:42:37.111Z,99760.91
2023-03-06T21:47:42.613Z,99752.53
2023-03-06T21:52:44.353Z,99743.25
2023-03-06T21:57:53.714Z,99744.16
2023-03-06T22:02:57.212Z,99737.50
2023-03-06T22:08:01.446Z,99730.84
2023-03-06T22:13:04.799Z,99721.59
2023-03-06T22:18:08.721Z,99714.88
2023-03-06T22:23:10.260Z,99724.31
2023-03-06T22:28:13.382Z,99715.81
2023-03-06T22:33:22.040Z,99712.44
2023-03-06T22:38:24.582Z,99708.22
2023-03-06T22:43:28.527Z,99701.50
2023-03-06T22:48:30.268Z,99706.69
2023-03-06T22:53:32.966Z,99704.97
2023-03-06T22:58:44.839Z,99708.47
2023-03-06T23:04:15.950Z,99700.72
2023-03-06T23:09:22.580Z,99699.81
2023-03-06T23:14:30.112Z,99686.97
2023-03-06T23:19:31.761Z,99688.66
2023-03-06T23:24:39.263Z,99692.88
2023-03-06T23:29:45.717Z,99687.03
2023-03-06T23:34:51.560Z,99689.69
2023-03-06T23:39:53.112Z,99686.34
2023-03-06T23:44:54.608Z,99670.19
2023-03-06T23:49:57.285Z,99664.19
2023-03-06T23:55:01.487Z,99670.28
